createdAt,value
2022-11-24T00:01:02.593Z,8.50
2022-11-24T00:03:05.337Z,8.50
2022-11-24T00:05:08.559Z,8.50
2022-11-24T00:07:11.379Z,8.60
2022-11-24T00:09:15.929Z,8.60
2022-11-24T00:11:19.648Z,8.60
2022-11-24T00:13:22.360Z,8.60
2022-11-24T00:15:25.077Z,8.70
2022-11-24T00:17:28.762Z,8.70
2022-11-24T00:19:31.544Z,8.80
2022-11-24T00:21:34.195Z,8.80
2022-11-24T00:23:37.426Z,8.80
2022-11-24T00:25:40.179Z,8.90
2022-11-24T00:27:42.873Z,8.90
2022-11-24T00:29:45.556Z,9.00
2022-11-24T00:31:48.324Z,9.00
2022-11-24T00:33:51.689Z,9.00
2022-11-24T00:35:55.122Z,9.00
2022-11-24T00:37:57.886Z,9.10
2022-11-24T00:40:00.556Z,9.10
2022-11-24T00:42:03.390Z,9.10
2022-11-24T00:44:06.704Z,9.10
2022-11-24T00:46:09.502Z,9.10
2022-11-24T00:48:12.365Z,9.10
2022-11-24T00:50:15.207Z,9.10
2022-11-24T00:52:17.881Z,9.00
2022-11-24T00:54:20.783Z,9.00
2022-11-24T00:56:23.837Z,9.00
2022-11-24T00:58:26.874Z,9.00
2022-11-24T01:00:29.536Z,8.90
2022-11-24T01:02:32.260Z,9.00
2022-11-24T01:04:35.311Z,9.00
2022-11-24T01:06:38.204Z,9.00
2022-11-24T01:08:41.317Z,8.90
2022-11-24T01:10:44.018Z,8.90
2022-11-24T01:12:47.217Z,8.90
2022-11-24T01:14:49.922Z,8.80
2022-11-24T01:16:52.841Z,8.80
2022-11-24T01:18:55.927Z,8.80
2022-11-24T01:20:58.770Z,8.80
2022-11-24T01:23:01.476Z,8.80
2022-11-24T01:25:04.563Z,8.80
2022-11-24T01:27:07.452Z,8.70
2022-11-24T01:29:10.524Z,8.70
2022-11-24T01:31:13.760Z,8.70
2022-11-24T01:33:16.502Z,8.70
2022-11-24T01:35:19.169Z,8.70
2022-11-24T01:37:21.873Z,8.70
2022-11-24T01:39:24.543Z,8.70
2022-11-24T01:41:27.342Z,8.60
2022-11-24T01:43:30.079Z,8.70
2022-11-24T01:45:34.671Z,8.60
2022-11-24T01:47:40.254Z,8.60
2022-11-24T01:49:44.880Z,8.70
2022-11-24T01:51:49.401Z,8.70
2022-11-24T01:53:54.454Z,8.60
2022-11-24T01:55:57.716Z,8.60
2022-11-24T01:58:02.258Z,8.70
2022-11-24T02:00:07.186Z,8.70
2022-11-24T02:02:12.029Z,8.70
2022-11-24T02:04:16.550Z,8.70
2022-11-24T02:06:21.118Z,8.70
2022-11-24T02:08:25.642Z,8.60
2022-11-24T02:10:29.016Z,8.60
2022-11-24T02:12:32.226Z,8.60
2022-11-24T02:14:36.317Z,8.60
2022-11-24T02:16:39.494Z,8.60
2022-11-24T02:18:42.405Z,8.50
2022-11-24T02:20:45.062Z,8.50
2022-11-24T02:22:50.358Z,8.50
2022-11-24T02:24:54.914Z,8.50
2022-11-24T02:26:57.602Z,8.50
2022-11-24T02:29:00.404Z,8.50
2022-11-24T02:31:03.779Z,8.50
2022-11-24T02:33:06.484Z,8.50
2022-11-24T02:35:10.060Z,8.50
2022-11-24T02:37:12.728Z,8.50
2022-11-24T02:39:15.658Z,8.50
2022-11-24T02:41:19.812Z,8.60
2022-11-24T02:43:23.376Z,8.60
2022-11-24T02:45:26.388Z,8.70
2022-11-24T02:47:29.084Z,8.80
2022-11-24T02:49:31.772Z,8.80
2022-11-24T02:51:34.529Z,8.90
2022-11-24T02:53:37.358Z,8.90
2022-11-24T02:55:40.119Z,8.90
2022-11-24T02:57:42.861Z,8.90
2022-11-24T02:59:46.044Z,8.90
2022-11-24T03:01:48.747Z,8.80
2022-11-24T03:03:51.513Z,8.90
2022-11-24T03:05:54.317Z,9.00
2022-11-24T03:07:57.057Z,9.00
2022-11-24T03:10:00.053Z,9.00
2022-11-24T03:12:02.792Z,9.10
2022-11-24T03:14:05.680Z,9.00
2022-11-24T03:16:09.494Z,9.00
2022-11-24T03:18:12.184Z,9.10
2022-11-24T03:20:15.003Z,9.10
2022-11-24T03:22:17.719Z,9.10
2022-11-24T03:24:20.577Z,9.10
2022-11-24T03:26:24.107Z,9.10
2022-11-24T03:28:26.811Z,9.10
2022-11-24T03:30:29.816Z,9.10
2022-11-24T03:32:32.468Z,9.10
2022-11-24T03:34:35.446Z,9.20
2022-11-24T03:36:38.392Z,9.10
2022-11-24T03:38:41.118Z,9.10
2022-11-24T03:40:43.846Z,9.20
2022-11-24T03:42:46.501Z,9.20
2022-11-24T03:44:49.191Z,9.20
2022-11-24T03:46:51.901Z,9.20
2022-11-24T03:51:11.636Z,9.30
2022-11-24T03:53:14.367Z,9.30
2022-11-24T03:55:17.172Z,9.30
2022-11-24T03:57:19.872Z,9.30
2022-11-24T03:59:22.544Z,9.20
2022-11-24T04:01:25.365Z,9.20
2022-11-24T04:03:28.107Z,9.20
2022-11-24T04:05:31.972Z,9.20
2022-11-24T04:07:34.803Z,9.10
2022-11-24T04:09:37.773Z,9.20
2022-11-24T04:11:58.489Z,9.10
2022-11-24T04:14:01.169Z,9.10
2022-11-24T04:16:06.067Z,9.10
2022-11-24T04:18:08.576Z,9.10
2022-11-24T04:20:11.690Z,9.10
2022-11-24T04:22:14.179Z,9.10
2022-11-24T04:24:16.639Z,9.10
2022-11-24T04:26:19.138Z,9.10
2022-11-24T04:28:21.632Z,9.20
2022-11-24T04:30:24.841Z,9.20
2022-11-24T04:32:27.370Z,9.10
2022-11-24T04:34:29.857Z,9.20
2022-11-24T04:36:32.356Z,9.10
2022-11-24T04:39:26.035Z,9.10
2022-11-24T04:40:39.252Z,9.20
2022-11-24T04:42:41.757Z,9.20
2022-11-24T04:44:44.226Z,9.20
2022-11-24T04:46:46.797Z,9.20
2022-11-24T04:48:49.354Z,9.20
2022-11-24T04:50:52.111Z,9.20
2022-11-24T04:52:54.619Z,9.20
2022-11-24T04:54:57.140Z,9.30
2022-11-24T04:56:59.633Z,9.20
2022-11-24T04:59:07.811Z,9.20
2022-11-24T05:01:08.040Z,9.20
2022-11-24T05:03:10.529Z,9.30
2022-11-24T05:05:13.215Z,9.30
2022-11-24T05:07:18.864Z,9.30
2022-11-24T05:09:20.883Z,9.30
2022-11-24T05:11:24.284Z,9.30
2022-11-24T05:13:26.758Z,9.10
2022-11-24T05:15:29.241Z,9.00
2022-11-24T05:17:32.878Z,9.10
2022-11-24T05:19:35.365Z,8.90
2022-11-24T05:21:37.908Z,8.80
2022-11-24T05:23:40.374Z,8.70
2022-11-24T05:25:47.448Z,8.70
2022-11-24T05:27:47.240Z,8.70
2022-11-24T05:29:49.923Z,8.70
2022-11-24T05:31:52.526Z,8.60
2022-11-24T05:33:55.069Z,8.60
2022-11-24T05:36:01.007Z,8.50
2022-11-24T05:38:04.008Z,8.50
2022-11-24T05:40:07.564Z,8.50
2022-11-24T05:42:28.159Z,8.50
2022-11-24T05:44:30.654Z,8.50
2022-11-24T05:46:33.194Z,8.50
2022-11-24T05:48:35.758Z,8.50
2022-11-24T05:50:38.400Z,8.40
2022-11-24T05:52:40.899Z,8.50
2022-11-24T05:54:43.407Z,8.50
2022-11-24T05:56:45.878Z,8.50
2022-11-24T05:58:48.348Z,8.50
2022-11-24T06:00:50.857Z,8.40
2022-11-24T06:02:53.437Z,8.40
2022-11-24T06:04:55.990Z,8.50
2022-11-24T06:06:58.521Z,8.50
2022-11-24T06:09:01.041Z,8.50
2022-11-24T06:11:05.597Z,8.40
2022-11-24T06:13:08.128Z,8.40
2022-11-24T06:15:11.224Z,8.50
2022-11-24T06:17:13.744Z,8.50
2022-11-24T06:19:16.226Z,8.50
2022-11-24T06:21:18.848Z,8.50
2022-11-24T06:23:21.371Z,8.50
2022-11-24T06:25:23.874Z,8.50
2022-11-24T06:27:26.461Z,8.50
2022-11-24T06:29:28.977Z,8.50
2022-11-24T06:31:31.501Z,8.50
2022-11-24T06:33:34.601Z,8.50
2022-11-24T06:35:37.065Z,8.50
2022-11-24T06:37:39.722Z,8.50
2022-11-24T06:39:42.542Z,8.50
2022-11-24T06:41:45.049Z,8.50
2022-11-24T06:43:47.545Z,8.50
2022-11-24T06:45:51.904Z,8.50
2022-11-24T06:47:54.531Z,8.50
2022-11-24T06:49:57.422Z,8.50
2022-11-24T06:51:59.918Z,8.50
2022-11-24T06:54:04.221Z,8.50
2022-11-24T06:56:12.128Z,8.60
2022-11-24T06:58:11.866Z,8.50
2022-11-24T07:00:15.122Z,8.50
2022-11-24T07:02:17.637Z,8.50
2022-11-24T07:04:20.233Z,8.50
2022-11-24T07:06:23.339Z,8.50
2022-11-24T07:08:26.153Z,8.50
2022-11-24T07:10:28.772Z,8.50
2022-11-24T07:12:34.182Z,8.60
2022-11-24T07:14:36.979Z,8.50
2022-11-24T07:16:39.690Z,8.60
2022-11-24T07:18:42.361Z,8.60
2022-11-24T07:20:44.853Z,8.60
2022-11-24T07:22:47.373Z,8.70
2022-11-24T07:24:49.884Z,8.70
2022-11-24T07:26:52.380Z,8.70
2022-11-24T07:28:54.853Z,8.80
2022-11-24T07:30:58.069Z,8.80
2022-11-24T07:33:00.589Z,8.80
2022-11-24T07:35:03.289Z,8.80
2022-11-24T07:37:05.809Z,8.80
2022-11-24T07:39:08.296Z,8.90
2022-11-24T07:41:11.963Z,9.00
2022-11-24T07:43:19.814Z,9.00
2022-11-24T07:45:19.134Z,8.90
2022-11-24T07:47:21.697Z,9.00
2022-11-24T07:49:24.396Z,9.10
2022-11-24T07:51:26.881Z,9.10
2022-11-24T07:55:47.568Z,9.10
2022-11-24T07:57:50.040Z,9.10
2022-11-24T07:59:52.520Z,9.10
2022-11-24T08:01:55.061Z,9.10
2022-11-24T08:03:57.769Z,9.10
2022-11-24T08:08:04.908Z,9.10
2022-11-24T08:10:08.397Z,9.10
2022-11-24T08:12:10.935Z,9.10
2022-11-24T08:14:13.496Z,9.10
2022-11-24T08:16:16.713Z,9.10
2022-11-24T08:18:19.298Z,9.10
2022-11-24T08:20:22.209Z,9.10
2022-11-24T08:22:24.724Z,9.20
2022-11-24T08:24:27.420Z,9.20
2022-11-24T08:26:30.022Z,9.10
2022-11-24T08:28:32.853Z,9.20
2022-11-24T08:30:35.329Z,9.20
2022-11-24T08:32:37.844Z,9.20
2022-11-24T08:34:40.317Z,9.20
2022-11-24T08:36:42.845Z,9.20
2022-11-24T08:38:45.770Z,9.20
2022-11-24T08:40:48.281Z,9.20
2022-11-24T08:42:50.889Z,9.20
2022-11-24T08:44:58.836Z,9.20
2022-11-24T08:46:57.744Z,9.20
2022-11-24T08:49:00.732Z,9.10
2022-11-24T08:51:07.274Z,9.10
2022-11-24T08:53:09.760Z,9.10
2022-11-24T08:55:12.464Z,9.10
2022-11-24T08:57:20.249Z,9.10
2022-11-24T08:59:19.453Z,9.10
2022-11-24T09:01:22.097Z,9.10
2022-11-24T09:03:24.646Z,9.10
2022-11-24T09:05:51.285Z,9.10
2022-11-24T09:07:31.466Z,9.00
2022-11-24T09:09:34.157Z,9.00
2022-11-24T09:11:36.824Z,9.10
2022-11-24T09:13:39.888Z,9.00
2022-11-24T09:15:42.355Z,9.00
2022-11-24T09:17:44.848Z,9.00
2022-11-24T09:19:47.545Z,9.10
2022-11-24T09:21:50.179Z,9.00
2022-11-24T09:23:53.379Z,9.10
2022-11-24T09:25:57.665Z,9.00
2022-11-24T09:28:00.188Z,9.10
2022-11-24T09:30:02.876Z,9.10
2022-11-24T09:32:07.073Z,9.10
2022-11-24T09:34:12.309Z,9.10
2022-11-24T09:36:14.924Z,9.20
2022-11-24T09:38:17.382Z,9.20
2022-11-24T09:40:20.157Z,9.20
2022-11-24T09:42:27.765Z,9.20
2022-11-24T09:45:07.906Z,9.30
2022-11-24T09:47:12.400Z,9.20
2022-11-24T09:49:17.108Z,9.20
2022-11-24T09:51:21.785Z,9.30
2022-11-24T09:53:26.324Z,9.30
2022-11-24T09:55:31.717Z,9.30
2022-11-24T09:57:37.739Z,9.30
2022-11-24T09:59:41.039Z,9.20
2022-11-24T10:01:44.675Z,9.30
2022-11-24T10:03:48.524Z,9.30
2022-11-24T10:05:51.341Z,9.20
2022-11-24T10:07:56.627Z,9.20
2022-11-24T10:10:01.642Z,9.20
2022-11-24T10:12:07.626Z,9.20
2022-11-24T10:14:33.873Z,9.20
2022-11-24T10:16:43.290Z,9.20
2022-11-24T10:18:52.535Z,9.20
2022-11-24T10:20:57.572Z,9.20
2022-11-24T10:23:03.485Z,9.30
2022-11-24T10:25:09.961Z,9.20
2022-11-24T10:27:15.350Z,9.20
2022-11-24T10:29:20.544Z,9.20
2022-11-24T10:31:24.647Z,9.20
2022-11-24T10:33:30.947Z,9.30
2022-11-24T10:35:36.677Z,9.30
2022-11-24T10:37:41.008Z,9.30
2022-11-24T10:39:46.844Z,9.30
2022-11-24T10:41:50.869Z,9.20
2022-11-24T10:43:53.370Z,9.20
2022-11-24T10:45:58.230Z,9.30
2022-11-24T10:48:00.701Z,9.30
2022-11-24T10:50:04.470Z,9.30
2022-11-24T10:52:09.133Z,9.30
2022-11-24T10:54:15.825Z,9.40
2022-11-24T10:56:18.714Z,9.40
2022-11-24T10:58:22.253Z,9.50
2022-11-24T11:02:47.397Z,9.60
2022-11-24T11:04:49.939Z,9.60
2022-11-24T11:06:52.512Z,9.60
2022-11-24T11:09:01.835Z,9.60
2022-11-24T11:11:14.991Z,9.60
2022-11-24T11:13:24.969Z,9.60
2022-11-24T11:15:29.369Z,9.70
2022-11-24T11:17:35.984Z,9.70
2022-11-24T11:20:01.722Z,9.70
2022-11-24T11:21:43.808Z,9.80
2022-11-24T11:23:48.089Z,9.80
2022-11-24T11:25:50.671Z,9.80
2022-11-24T11:27:55.077Z,9.80
2022-11-24T11:34:28.510Z,9.90
2022-11-24T11:36:26.448Z,9.90
2022-11-24T11:38:30.794Z,9.90
2022-11-24T11:40:34.684Z,9.90
2022-11-24T11:43:01.416Z,9.80
2022-11-24T11:44:46.317Z,9.90
2022-11-24T11:46:48.844Z,9.90
2022-11-24T11:48:52.314Z,9.90
2022-11-24T11:51:22.212Z,9.90
2022-11-24T11:53:07.595Z,10.00
2022-11-24T11:55:17.202Z,9.90
2022-11-24T11:57:55.429Z,10.00
2022-11-24T11:59:55.748Z,10.00
2022-11-24T12:02:05.540Z,10.00
2022-11-24T12:04:15.757Z,10.00
2022-11-24T12:06:23.250Z,10.00
2022-11-24T12:08:43.941Z,10.10
2022-11-24T12:10:36.847Z,10.10
2022-11-24T12:12:51.941Z,10.10
2022-11-24T12:14:57.592Z,10.10
2022-11-24T12:17:02.924Z,10.10
2022-11-24T12:19:10.013Z,10.10
2022-11-24T12:21:15.155Z,10.10
2022-11-24T12:23:21.110Z,10.20
2022-11-24T12:25:26.169Z,10.20
2022-11-24T12:27:30.838Z,10.20
2022-11-24T12:29:42.736Z,10.30
2022-11-24T12:31:47.419Z,10.40
2022-11-24T12:34:01.581Z,10.50
2022-11-24T12:36:05.997Z,10.60
2022-11-24T12:38:13.837Z,10.70
2022-11-24T12:40:19.573Z,10.70
2022-11-24T12:42:24.809Z,10.80
2022-11-24T12:44:33.362Z,10.80
2022-11-24T12:46:38.120Z,10.80
2022-11-24T12:48:44.478Z,10.70
2022-11-24T12:50:46.948Z,10.70
2022-11-24T12:52:57.170Z,10.80
2022-11-24T12:54:55.787Z,10.80
2022-11-24T12:57:00.192Z,10.80
2022-11-24T12:59:04.956Z,10.80
2022-11-24T13:03:29.493Z,10.90
2022-11-24T13:05:34.008Z,10.90
2022-11-24T13:07:39.176Z,11.00
2022-11-24T13:09:55.973Z,10.90
2022-11-24T13:12:07.581Z,11.00
2022-11-24T13:14:20.973Z,10.90
2022-11-24T13:16:53.656Z,10.90
2022-11-24T13:18:44.254Z,11.00
2022-11-24T13:20:46.927Z,11.00
2022-11-24T13:22:50.242Z,11.00
2022-11-24T13:25:17.995Z,11.10
2022-11-24T13:27:28.864Z,11.10
2022-11-24T13:29:36.490Z,11.20
2022-11-24T13:31:39.152Z,11.20
2022-11-24T13:33:41.704Z,11.20
2022-11-24T13:35:49.761Z,11.10
2022-11-24T13:37:52.361Z,11.10
2022-11-24T13:39:55.835Z,11.10
2022-11-24T13:42:01.161Z,11.10
2022-11-24T13:44:19.665Z,10.90
2022-11-24T13:46:41.409Z,10.90
2022-11-24T13:48:57.844Z,10.90
2022-11-24T13:51:11.560Z,10.90
2022-11-24T13:53:16.532Z,10.90
2022-11-24T13:55:21.765Z,10.90
2022-11-24T13:57:34.174Z,10.80
2022-11-24T13:59:37.105Z,10.80
2022-11-24T14:01:41.413Z,10.80
2022-11-24T14:04:29.136Z,10.80
2022-11-24T14:06:17.144Z,10.80
2022-11-24T14:08:21.804Z,10.70
2022-11-24T14:10:26.107Z,10.70
2022-11-24T14:12:30.785Z,10.70
2022-11-24T14:14:33.707Z,10.80
2022-11-24T14:16:36.397Z,10.80
2022-11-24T14:18:39.752Z,10.70
2022-11-24T14:20:42.228Z,10.70
2022-11-24T14:22:44.751Z,10.70
2022-11-24T14:24:51.896Z,10.70
2022-11-24T14:26:54.377Z,10.70
2022-11-24T14:29:07.198Z,10.70
2022-11-24T14:31:12.520Z,10.70
2022-11-24T14:33:18.088Z,10.60
2022-11-24T14:35:23.151Z,10.60
2022-11-24T14:37:26.411Z,10.60
2022-11-24T14:39:30.837Z,10.50
2022-11-24T14:41:34.182Z,10.50
2022-11-24T14:43:36.907Z,10.50
2022-11-24T14:45:41.678Z,10.50
2022-11-24T14:47:46.638Z,10.50
2022-11-24T14:49:50.358Z,10.50
2022-11-24T14:51:56.217Z,10.40
2022-11-24T14:56:25.524Z,10.40
2022-11-24T14:58:32.107Z,10.30
2022-11-24T15:00:35.498Z,10.30
2022-11-24T15:02:40.612Z,10.20
2022-11-24T15:05:02.614Z,10.10
2022-11-24T15:07:02.437Z,10.10
2022-11-24T15:09:05.756Z,10.10
2022-11-24T15:11:08.384Z,10.10
2022-11-24T15:13:16.186Z,10.10
2022-11-24T15:15:20.125Z,10.10
2022-11-24T15:17:23.790Z,10.10
2022-11-24T15:19:27.439Z,10.10
2022-11-24T15:21:30.941Z,10.10
2022-11-24T15:23:34.522Z,10.10
2022-11-24T15:25:37.036Z,10.00
2022-11-24T15:27:39.514Z,10.00
2022-11-24T15:29:42.204Z,9.90
2022-11-24T15:31:49.395Z,9.90
2022-11-24T15:33:49.000Z,9.80
2022-11-24T15:35:51.688Z,9.80
2022-11-24T15:37:54.195Z,9.80
2022-11-24T15:39:56.665Z,9.80
2022-11-24T15:41:59.321Z,9.70
2022-11-24T15:44:01.824Z,9.70
2022-11-24T15:46:04.881Z,9.60
2022-11-24T15:48:07.441Z,9.60
2022-11-24T15:50:11.133Z,9.50
2022-11-24T15:52:15.572Z,9.50
2022-11-24T15:54:18.539Z,9.40
2022-11-24T15:56:23.456Z,9.20
2022-11-24T15:58:25.925Z,9.10
2022-11-24T16:00:28.653Z,9.10
2022-11-24T16:02:31.155Z,9.00
2022-11-24T16:04:33.971Z,9.00
2022-11-24T16:06:36.624Z,9.00
2022-11-24T16:08:39.103Z,9.00
2022-11-24T16:10:42.032Z,8.90
2022-11-24T16:12:44.622Z,8.90
2022-11-24T16:14:47.099Z,8.80
2022-11-24T16:16:52.859Z,8.80
2022-11-24T16:18:56.938Z,8.80
2022-11-24T16:21:01.029Z,8.80
2022-11-24T16:23:06.496Z,8.80
2022-11-24T16:25:12.522Z,8.70
2022-11-24T16:27:15.548Z,8.60
2022-11-24T16:29:19.837Z,8.60
2022-11-24T16:31:22.383Z,8.60
2022-11-24T16:33:24.963Z,8.50
2022-11-24T16:35:27.456Z,8.50
2022-11-24T16:37:30.029Z,8.40
2022-11-24T16:39:32.543Z,8.30
2022-11-24T16:41:35.037Z,8.20
2022-11-24T16:43:37.629Z,8.20
2022-11-24T16:45:45.178Z,8.10
2022-11-24T16:47:44.508Z,8.10
2022-11-24T16:49:47.281Z,8.10
2022-11-24T16:51:49.918Z,8.10
2022-11-24T16:53:56.528Z,8.10
2022-11-24T16:55:59.041Z,8.10
2022-11-24T16:58:03.696Z,8.20
2022-11-24T17:00:08.980Z,8.10
2022-11-24T17:02:32.756Z,8.00
2022-11-24T17:04:37.338Z,8.00
2022-11-24T17:06:39.976Z,7.90
2022-11-24T17:08:43.134Z,7.80
2022-11-24T17:10:45.631Z,7.70
2022-11-24T17:12:48.406Z,7.70
2022-11-24T17:15:16.302Z,7.70
2022-11-24T17:16:55.308Z,7.60
2022-11-24T17:18:59.204Z,7.60
2022-11-24T17:21:07.868Z,7.50
2022-11-24T17:23:06.851Z,7.40
2022-11-24T17:25:09.789Z,7.30
2022-11-24T17:27:12.552Z,7.20
2022-11-24T17:29:15.087Z,7.20
2022-11-24T17:31:19.731Z,7.30
2022-11-24T17:33:22.269Z,7.30
2022-11-24T17:35:24.769Z,7.20
2022-11-24T17:37:27.279Z,7.20
2022-11-24T17:39:29.773Z,7.20
2022-11-24T17:41:32.923Z,7.10
2022-11-24T17:43:35.579Z,7.10
2022-11-24T17:45:38.272Z,7.10
2022-11-24T17:47:40.987Z,7.10
2022-11-24T17:49:43.602Z,7.00
2022-11-24T17:51:47.889Z,7.00
2022-11-24T17:53:51.481Z,7.00
2022-11-24T17:55:53.984Z,6.90
2022-11-24T17:57:56.720Z,6.90
2022-11-24T17:59:59.308Z,6.90
2022-11-24T18:02:01.897Z,6.80
2022-11-24T18:04:05.081Z,6.80
2022-11-24T18:06:08.500Z,6.80
2022-11-24T18:08:11.790Z,6.80
2022-11-24T18:10:14.459Z,6.80
2022-11-24T18:12:17.083Z,6.80
2022-11-24T18:14:19.565Z,6.90
2022-11-24T18:16:22.140Z,6.90
2022-11-24T18:18:24.862Z,7.00
2022-11-24T18:20:28.532Z,7.10
2022-11-24T18:22:57.870Z,7.20
2022-11-24T18:24:38.948Z,7.20
2022-11-24T18:26:42.173Z,7.30
2022-11-24T18:28:44.855Z,7.50
2022-11-24T18:30:47.586Z,7.50
2022-11-24T18:32:50.091Z,7.60
2022-11-24T18:34:53.565Z,7.60
2022-11-24T18:36:56.341Z,7.60
2022-11-24T18:39:00.949Z,7.70
2022-11-24T18:41:04.144Z,7.60
2022-11-24T18:43:06.949Z,7.70
2022-11-24T18:45:10.165Z,7.70
2022-11-24T18:47:12.651Z,7.70
2022-11-24T18:49:15.159Z,7.70
2022-11-24T18:51:18.096Z,7.70
2022-11-24T18:53:21.088Z,7.70
2022-11-24T18:55:23.563Z,7.80
2022-11-24T18:57:26.086Z,7.80
2022-11-24T18:59:28.595Z,7.80
2022-11-24T19:01:31.725Z,7.80
2022-11-24T19:03:34.489Z,7.80
2022-11-24T19:05:36.990Z,7.80
2022-11-24T19:07:39.552Z,7.90
2022-11-24T19:09:42.202Z,8.00
2022-11-24T19:11:45.604Z,8.00
2022-11-24T19:13:48.594Z,7.90
2022-11-24T19:15:51.533Z,7.90
2022-11-24T19:17:54.083Z,8.00
2022-11-24T19:19:56.709Z,8.00
2022-11-24T19:21:59.330Z,8.00
2022-11-24T19:24:05.285Z,8.10
2022-11-24T19:26:07.643Z,8.00
2022-11-24T19:28:11.997Z,8.10
2022-11-24T19:30:16.383Z,8.10
2022-11-24T19:32:19.039Z,8.10
2022-11-24T19:34:21.549Z,8.10
2022-11-24T19:36:25.423Z,8.10
2022-11-24T19:38:30.123Z,8.10
2022-11-24T19:40:32.259Z,8.10
2022-11-24T19:42:34.995Z,8.10
2022-11-24T19:44:37.706Z,8.10
2022-11-24T19:46:45.820Z,8.10
2022-11-24T19:48:49.782Z,8.10
2022-11-24T19:50:58.210Z,8.10
2022-11-24T19:53:00.751Z,8.10
2022-11-24T19:55:03.403Z,8.00
2022-11-24T19:57:05.892Z,8.00
2022-11-24T19:59:09.475Z,8.00
2022-11-24T20:01:12.634Z,8.00
2022-11-24T20:03:15.408Z,7.90
2022-11-24T20:05:17.921Z,7.90
2022-11-24T20:07:20.544Z,7.90
2022-11-24T20:09:47.407Z,7.90
2022-11-24T20:11:49.933Z,7.90
2022-11-24T20:13:52.421Z,7.90
2022-11-24T20:15:54.952Z,7.80
2022-11-24T20:17:59.240Z,7.80
2022-11-24T20:20:02.163Z,7.80
2022-11-24T20:22:05.097Z,7.90
2022-11-24T20:24:09.921Z,7.80
2022-11-24T20:26:13.452Z,7.70
2022-11-24T20:28:15.957Z,7.80
2022-11-24T20:30:18.620Z,7.70
2022-11-24T20:32:21.329Z,7.70
2022-11-24T20:34:24.060Z,7.70
2022-11-24T20:36:27.456Z,7.70
2022-11-24T20:38:30.102Z,7.60
2022-11-24T20:40:32.615Z,7.60
2022-11-24T20:42:36.755Z,7.60
2022-11-24T20:44:39.249Z,7.60
2022-11-24T20:46:43.322Z,7.60
2022-11-24T20:48:46.214Z,7.60
2022-11-24T20:50:52.591Z,7.60
2022-11-24T20:52:55.141Z,7.40
2022-11-24T20:54:59.422Z,7.30
2022-11-24T20:57:02.082Z,7.30
2022-11-24T20:59:04.538Z,7.20
2022-11-24T21:01:07.793Z,7.20
2022-11-24T21:03:27.965Z,7.30
2022-11-24T21:05:32.704Z,7.30
2022-11-24T21:07:36.672Z,7.30
2022-11-24T21:09:39.752Z,7.30
2022-11-24T21:11:42.974Z,7.30
2022-11-24T21:13:47.004Z,7.30
2022-11-24T21:15:50.282Z,7.30
2022-11-24T21:17:53.185Z,7.20
2022-11-24T21:20:00.839Z,7.20
2022-11-24T21:22:01.921Z,7.20
2022-11-24T21:24:06.841Z,7.30
2022-11-24T21:26:16.211Z,7.30
2022-11-24T21:28:15.156Z,7.30
2022-11-24T21:30:17.876Z,7.30
2022-11-24T21:32:21.204Z,7.30
2022-11-24T21:34:24.014Z,7.30
2022-11-24T21:36:26.679Z,7.30
2022-11-24T21:38:31.197Z,7.30
2022-11-24T21:40:35.317Z,7.20
2022-11-24T21:42:38.799Z,7.30
2022-11-24T21:44:42.048Z,7.20
2022-11-24T21:46:51.080Z,7.20
2022-11-24T21:48:51.790Z,7.10
2022-11-24T21:50:54.585Z,7.10
2022-11-24T21:53:03.284Z,7.10
2022-11-24T21:55:03.149Z,7.00
2022-11-24T21:57:05.796Z,7.00
2022-11-24T21:59:08.669Z,7.00
2022-11-24T22:01:12.473Z,7.00
2022-11-24T22:03:15.924Z,7.00
2022-11-24T22:05:18.670Z,7.10
2022-11-24T22:07:21.517Z,7.10
2022-11-24T22:09:24.324Z,7.10
2022-11-24T22:11:27.321Z,7.10
2022-11-24T22:13:30.285Z,7.10
2022-11-24T22:15:33.542Z,7.20
2022-11-24T22:17:36.912Z,7.30
2022-11-24T22:19:40.234Z,7.40
2022-11-24T22:21:43.537Z,7.50
2022-11-24T22:23:46.495Z,7.60
2022-11-24T22:25:49.284Z,7.60
2022-11-24T22:27:52.122Z,7.60
2022-11-24T22:29:56.151Z,7.60
2022-11-24T22:31:59.927Z,7.50
2022-11-24T22:34:04.506Z,7.50
2022-11-24T22:36:07.902Z,7.50
2022-11-24T22:38:10.682Z,7.40
2022-11-24T22:40:13.579Z,7.30
2022-11-24T22:42:16.196Z,7.30
2022-11-24T22:44:18.707Z,7.20
2022-11-24T22:46:22.238Z,7.30
2022-11-24T22:48:24.696Z,7.20
2022-11-24T22:50:27.203Z,7.20
2022-11-24T22:52:29.672Z,7.10
2022-11-24T22:54:32.187Z,7.10
2022-11-24T22:56:34.713Z,7.20
2022-11-24T22:58:37.994Z,7.10
2022-11-24T23:00:40.496Z,7.10
2022-11-24T23:02:43.115Z,7.00
2022-11-24T23:04:45.680Z,6.90
2022-11-24T23:06:48.146Z,6.70
2022-11-24T23:08:51.008Z,6.60
2022-11-24T23:10:58.519Z,6.50
2022-11-24T23:13:00.959Z,6.50
2022-11-24T23:15:03.715Z,6.60
2022-11-24T23:17:06.190Z,6.70
2022-11-24T23:19:08.835Z,6.70
2022-11-24T23:21:12.032Z,6.80
2022-11-24T23:23:14.544Z,6.90
2022-11-24T23:25:17.120Z,6.80
2022-11-24T23:27:19.588Z,6.90
2022-11-24T23:29:22.231Z,6.90
2022-11-24T23:31:27.424Z,6.90
2022-11-24T23:33:29.977Z,6.90
2022-11-24T23:35:32.763Z,6.90
2022-11-24T23:37:59.767Z,7.00
2022-11-24T23:39:39.548Z,7.10
2022-11-24T23:41:42.029Z,7.10
2022-11-24T23:43:44.592Z,7.10
2022-11-24T23:45:47.149Z,7.20
2022-11-24T23:47:49.721Z,7.40
2022-11-24T23:49:52.222Z,7.50
2022-11-24T23:51:54.724Z,7.70
2022-11-24T23:53:57.510Z,7.90
2022-11-24T23:56:00.653Z,8.00
2022-11-24T23:58:03.242Z,8.00
